Time;durP1;ratioP1;P1;durP2;ratioP2;P2;SDS_P1;SDS_P2;PMS_P1;PMS_P2;Temp;Humidity;BMP_temperature;BMP_pressure;BME280_temperature;BME280_humidity;BME280_pressure;Samples;Min_cycle;Max_cycle;Signal;HPM_P1;HPM_P2
2023/11/15 00:01:18;;;;;;;1999.90;999.90;;;;;;;16.39;75.13;100612.88;10381221;28;20057;-67
2023/11/15 00:06:21;;;;;;;1999.90;999.90;;;;;;;16.37;74.90;100616.59;10380826;28;20061;-67
2023/11/15 00:11:23;;;;;;;1999.90;999.90;;;;;;;16.51;73.40;100622.38;10380389;28;20488;-67
2023/11/15 00:16:26;;;;;;;1999.90;999.90;;;;;;;17.24;70.93;100616.16;10380463;28;20104;-67
2023/11/15 00:21:28;;;;;;;1999.90;999.90;;;;;;;17.70;68.94;100616.47;10379929;28;20085;-66
2023/11/15 00:26:31;;;;;;;1999.90;999.90;;;;;;;17.11;72.49;100626.97;10380151;28;20108;-67
2023/11/15 00:31:33;;;;;;;1999.90;999.90;;;;;;;17.69;70.77;100628.91;10379774;28;20042;-67
2023/11/15 00:36:43;;;;;;;1999.90;999.90;;;;;;;16.56;76.24;100629.94;10379773;28;20085;-67
2023/11/15 00:41:45;;;;;;;1999.90;999.90;;;;;;;16.69;76.15;100624.41;10378369;28;20046;-67
2023/11/15 00:46:48;;;;;;;1999.90;999.90;;;;;;;17.05;75.38;100628.34;10379148;28;20452;-67
2023/11/15 00:51:51;;;;;;;1999.90;999.90;;;;;;;17.68;73.77;100640.44;10377767;28;20554;-67
2023/11/15 00:56:55;;;;;;;1999.90;999.90;;;;;;;17.23;75.25;100647.06;10377656;28;20401;-67
2023/11/15 01:01:58;;;;;;;1999.90;999.90;;;;;;;15.62;79.32;100671.97;10378757;28;20045;-68
2023/11/15 01:07:01;;;;;;;1999.90;999.90;;;;;;;17.09;76.52;100668.59;10378326;28;20405;-67
2023/11/15 01:12:07;;;;;;;1999.90;999.90;;;;;;;17.56;74.14;100671.50;10378095;28;20448;-67
2023/11/15 01:17:10;;;;;;;1999.90;999.90;;;;;;;17.04;75.74;100679.56;10378003;28;20104;-67
2023/11/15 01:22:12;;;;;;;1999.90;999.90;;;;;;;17.12;75.51;100673.63;10393144;28;20062;-67
2023/11/15 01:27:15;;;;;;;1999.90;999.90;;;;;;;17.30;77.16;100687.06;10377666;28;20129;-67
2023/11/15 01:32:17;;;;;;;1999.90;999.90;;;;;;;17.45;75.44;100693.63;10376229;28;20129;-67
2023/11/15 01:37:20;;;;;;;1999.90;999.90;;;;;;;17.27;76.30;100701.38;10376688;28;20513;-67
2023/11/15 01:42:22;;;;;;;1999.90;999.90;;;;;;;17.24;76.69;100714.88;10375889;28;20124;-67
2023/11/15 01:47:24;;;;;;;1999.90;999.90;;;;;;;16.84;74.76;100725.38;10376955;28;20057;-67
2023/11/15 01:52:28;;;;;;;1999.90;999.90;;;;;;;17.00;78.45;100740.81;10375498;28;20045;-67
2023/11/15 01:57:31;;;;;;;1999.90;999.90;;;;;;;17.24;77.04;100751.06;10376725;28;20064;-67
2023/11/15 02:02:33;;;;;;;1999.90;999.90;;;;;;;17.57;75.37;100757.06;10376502;28;20052;-67
2023/11/15 02:07:39;;;;;;;1999.90;999.90;;;;;;;17.15;75.20;100762.47;10376070;28;20108;-67
2023/11/15 02:12:42;;;;;;;1999.90;999.90;;;;;;;18.78;70.48;100757.72;10374463;28;20062;-68
2023/11/15 02:17:48;;;;;;;1999.90;999.90;;;;;;;17.73;74.22;100770.59;10375849;28;20054;-67
2023/11/15 02:22:51;;;;;;;1999.90;999.90;;;;;;;17.55;76.05;100767.78;10374336;28;20564;-67
2023/11/15 02:27:54;;;;;;;1999.90;999.90;;;;;;;18.07;72.82;100790.66;10375453;28;20045;-67
2023/11/15 02:32:56;;;;;;;1999.90;999.90;;;;;;;17.73;72.05;100788.31;10375667;28;20049;-67
2023/11/15 02:37:58;;;;;;;1999.90;999.90;;;;;;;17.10;76.69;100802.53;10373924;28;20398;-67
2023/11/15 02:43:01;;;;;;;1999.90;999.90;;;;;;;17.37;73.95;100795.84;10373696;28;20046;-67
2023/11/15 02:48:03;;;;;;;1999.90;999.90;;;;;;;18.02;72.81;100799.00;10374927;28;20124;-67
2023/11/15 02:53:06;;;;;;;1999.90;999.90;;;;;;;17.21;75.34;100805.06;10374590;28;20124;-67
2023/11/15 02:58:08;;;;;;;1999.90;999.90;;;;;;;16.91;75.82;100811.16;10374741;28;20054;-67
2023/11/15 03:03:12;;;;;;;1999.90;999.90;;;;;;;17.53;74.34;100811.22;10374482;28;20148;-67
2023/11/15 03:08:18;;;;;;;1999.90;999.90;;;;;;;17.80;72.97;100813.28;10373277;28;20045;-67
2023/11/15 03:13:22;;;;;;;1999.90;999.90;;;;;;;17.89;72.40;100809.88;10357199;28;20068;-67
2023/11/15 03:18:25;;;;;;;1999.90;999.90;;;;;;;17.08;75.18;100807.94;10372972;28;20050;-67
2023/11/15 03:23:27;;;;;;;1999.90;999.90;;;;;;;17.11;75.44;100829.81;10377267;28;20054;-67
2023/11/15 03:28:31;;;;;;;1999.90;999.90;;;;;;;17.54;73.12;100834.09;10397555;28;20099;-67
2023/11/15 03:33:33;;;;;;;1999.90;999.90;;;;;;;16.75;77.52;100840.66;10381008;28;20054;-67
2023/11/15 03:38:36;;;;;;;1999.90;999.90;;;;;;;16.71;77.84;100845.38;10381948;28;20054;-67
2023/11/15 03:43:41;;;;;;;1999.90;999.90;;;;;;;16.96;75.89;100856.56;10381739;28;20096;-67
2023/11/15 03:48:43;;;;;;;1999.90;999.90;;;;;;;16.81;77.46;100853.38;10364164;28;20112;-67
2023/11/15 03:53:45;;;;;;;1999.90;999.90;;;;;;;16.71;76.82;100857.75;10381241;28;20041;-67
2023/11/15 03:58:48;;;;;;;1999.90;999.90;;;;;;;16.86;75.25;100869.75;10381258;28;20052;-67
2023/11/15 04:03:50;;;;;;;1999.90;999.90;;;;;;;16.60;75.91;100869.19;10380970;28;20124;-67
2023/11/15 04:08:56;;;;;;;1999.90;999.90;;;;;;;17.18;72.40;100868.84;10379753;28;20057;-67
2023/11/15 04:13:58;;;;;;;1999.90;999.90;;;;;;;16.56;73.28;100883.63;10379341;28;20133;-67
2023/11/15 04:19:00;;;;;;;1999.90;999.90;;;;;;;17.03;74.14;100884.19;10380413;28;20084;-67
2023/11/15 04:24:03;;;;;;;1999.90;999.90;;;;;;;17.35;74.74;100888.59;10378930;28;20045;-66
2023/11/15 04:29:06;;;;;;;1999.90;999.90;;;;;;;17.48;72.08;100898.13;10379962;28;20049;-66
2023/11/15 04:34:08;;;;;;;1999.90;999.90;;;;;;;17.72;72.64;100893.41;10379547;28;20049;-66
2023/11/15 04:39:11;;;;;;;1999.90;999.90;;;;;;;17.14;74.52;100904.47;10379607;28;20060;-66
2023/11/15 04:44:14;;;;;;;1999.90;999.90;;;;;;;17.17;74.71;100912.16;10378458;28;20057;-67
2023/11/15 04:49:16;;;;;;;1999.90;999.90;;;;;;;16.89;75.44;100927.66;10378178;28;20129;-67
2023/11/15 04:54:18;;;;;;;1999.90;999.90;;;;;;;16.72;77.11;100923.69;10378900;28;20049;-66
2023/11/15 04:59:21;;;;;;;1999.90;999.90;;;;;;;16.72;75.54;100931.63;10378747;28;20511;-66
2023/11/15 05:04:23;;;;;;;1999.90;999.90;;;;;;;16.70;77.11;100927.44;10378624;28;20046;-67
2023/11/15 05:09:27;;;;;;;1999.90;999.90;;;;;;;16.87;72.87;100945.44;10378510;28;20078;-66
2023/11/15 05:14:30;;;;;;;1999.90;999.90;;;;;;;17.20;73.80;100941.00;10378235;28;20108;-66
2023/11/15 05:19:34;;;;;;;1999.90;999.90;;;;;;;17.17;73.50;100941.25;10377822;28;20116;-67
2023/11/15 05:24:36;;;;;;;1999.90;999.90;;;;;;;17.14;73.16;100938.00;10377598;28;20161;-67
2023/11/15 05:29:39;;;;;;;1999.90;999.90;;;;;;;16.73;76.48;100940.44;10377577;28;20056;-66
2023/11/15 05:34:41;;;;;;;1999.90;999.90;;;;;;;17.22;73.10;100952.28;10360164;28;20054;-66
2023/11/15 05:39:43;;;;;;;1999.90;999.90;;;;;;;17.31;72.79;100944.53;10376174;28;20052;-67
2023/11/15 05:44:46;;;;;;;1999.90;999.90;;;;;;;17.44;72.03;100951.31;10376524;28;20081;-67
2023/11/15 05:49:48;;;;;;;1999.90;999.90;;;;;;;16.97;76.42;100948.19;10376752;28;20510;-66
2023/11/15 05:54:50;;;;;;;1999.90;999.90;;;;;;;17.14;73.62;100952.06;10376477;28;20393;-67
2023/11/15 05:59:53;;;;;;;1999.90;999.90;;;;;;;17.45;73.43;100966.25;10375472;28;20096;-67
2023/11/15 06:04:56;;;;;;;1999.90;999.90;;;;;;;17.81;71.16;100982.63;10376179;28;20421;-67
2023/11/15 06:10:00;;;;;;;1999.90;999.90;;;;;;;17.77;70.52;100980.38;10376112;28;20468;-67
2023/11/15 06:15:08;;;;;;;1999.90;999.90;;;;;;;16.77;74.46;100980.66;10375783;28;20503;-67
2023/11/15 06:20:11;;;;;;;1999.90;999.90;;;;;;;16.28;73.86;100990.69;10374661;28;20168;-67
2023/11/15 06:25:18;;;;;;;1999.90;999.90;;;;;;;17.45;71.96;100989.25;10375552;28;20473;-67
2023/11/15 06:30:21;;;;;;;1999.90;999.90;;;;;;;16.58;76.29;100997.16;10374271;28;20132;-67
2023/11/15 06:35:24;;;;;;;1999.90;999.90;;;;;;;17.24;73.45;100994.50;10384127;22;20053;-64
2023/11/15 06:40:26;;;;;;;1999.90;999.90;;;;;;;16.36;75.81;101004.16;10398738;28;20053;-64
2023/11/15 06:45:29;;;;;;;1999.90;999.90;;;;;;;17.18;73.61;100998.50;10415701;28;20476;-64
2023/11/15 06:50:32;;;;;;;1999.90;999.90;;;;;;;16.95;74.19;101010.94;10415760;28;20075;-64
2023/11/15 06:55:35;;;;;;;1999.90;999.90;;;;;;;17.03;75.33;101019.09;10415219;28;20050;-64
2023/11/15 07:00:37;;;;;;;1999.90;999.90;;;;;;;17.32;75.14;101017.69;10415353;28;20064;-64
2023/11/15 07:05:48;;;;;;;1999.90;999.90;;;;;;;17.09;74.99;101023.03;10415195;28;20045;-64
2023/11/15 07:10:52;;;;;;;1999.90;999.90;;;;;;;17.11;73.97;101030.84;10414273;28;20054;-64
2023/11/15 07:15:54;;;;;;;1999.90;999.90;;;;;;;17.11;75.51;101036.97;10414860;28;20481;-64
2023/11/15 07:20:56;;;;;;;1999.90;999.90;;;;;;;17.61;73.28;101047.84;10414915;28;20451;-64
2023/11/15 07:25:59;;;;;;;1999.90;999.90;;;;;;;16.79;74.66;101058.88;10413618;28;20052;-64
2023/11/15 07:31:01;;;;;;;1999.90;999.90;;;;;;;16.48;76.62;101068.41;10413870;28;20064;-64
2023/11/15 07:36:04;;;;;;;1999.90;999.90;;;;;;;17.11;76.51;101066.06;10413292;28;20054;-64
2023/11/15 07:41:06;;;;;;;1999.90;999.90;;;;;;;16.77;75.18;101070.56;10414593;28;20124;-64
2023/11/15 07:46:09;;;;;;;1999.90;999.90;;;;;;;17.44;72.68;101064.31;10397176;28;20046;-64
2023/11/15 07:51:12;;;;;;;1999.90;999.90;;;;;;;16.43;77.23;101070.56;10414411;28;20057;-63
2023/11/15 07:56:15;;;;;;;1999.90;999.90;;;;;;;16.48;77.04;101086.91;10414476;28;20045;-64
2023/11/15 08:01:18;;;;;;;1999.90;999.90;;;;;;;16.58;76.13;101100.25;10396796;28;20068;-64
2023/11/15 08:06:20;;;;;;;1999.90;999.90;;;;;;;16.28;78.08;101106.94;10412954;28;20064;-64
2023/11/15 08:11:23;;;;;;;1999.90;999.90;;;;;;;16.96;74.53;101117.56;10419952;28;20057;-64
2023/11/15 08:16:28;;;;;;;1999.90;999.90;;;;;;;16.80;74.67;101128.50;10421331;28;20103;-64
2023/11/15 08:21:31;;;;;;;1999.90;999.90;;;;;;;17.40;73.19;101123.72;10420127;28;20053;-64
2023/11/15 08:26:33;;;;;;;1999.90;999.90;;;;;;;16.53;77.71;101132.31;10419674;28;20157;-63
2023/11/15 08:31:37;;;;;;;1999.90;999.90;;;;;;;17.69;72.54;101124.00;10402931;28;20053;-64
2023/11/15 08:36:39;;;;;;;1999.90;999.90;;;;;;;16.70;75.66;101147.69;10403118;28;20049;-63
2023/11/15 08:41:42;;;;;;;1999.90;999.90;;;;;;;16.82;73.07;101148.53;10420252;28;20046;-64
2023/11/15 08:46:45;;;;;;;1999.90;999.90;;;;;;;16.68;73.28;101143.50;10402280;28;20435;-64
2023/11/15 08:51:50;;;;;;;1999.90;999.90;;;;;;;16.71;72.46;101154.69;10401985;28;20057;-64
2023/11/15 08:56:53;;;;;;;1999.90;999.90;;;;;;;16.78;73.92;101162.13;10419861;28;20419;-63
2023/11/15 09:01:56;;;;;;;1999.90;999.90;;;;;;;16.93;72.53;101171.56;10419739;28;20081;-64
2023/11/15 09:06:58;;;;;;;1999.90;999.90;;;;;;;18.82;66.38;101163.13;10418753;28;20120;-64
2023/11/15 09:12:03;;;;;;;1999.90;999.90;;;;;;;17.02;71.90;101165.53;10375606;28;20520;-64
2023/11/15 09:17:12;;;;;;;1999.90;999.90;;;;;;;16.61;73.25;101168.72;10430768;28;20048;-64
2023/11/15 09:22:18;;;;;;;1999.90;999.90;;;;;;;16.94;73.47;101180.31;10379887;28;20052;-63
2023/11/15 09:27:24;;;;;;;1999.90;999.90;;;;;;;20.51;63.00;101172.84;10402018;28;20514;-63
2023/11/15 09:32:26;;;;;;;1999.90;999.90;;;;;;;17.87;68.35;101182.59;10383111;28;20058;-64
2023/11/15 09:37:29;;;;;;;1999.90;999.90;;;;;;;17.04;72.88;101191.88;10392726;28;20061;-64
2023/11/15 09:42:33;;;;;;;1999.90;999.90;;;;;;;17.92;69.73;101193.66;10394616;28;20396;-64
2023/11/15 09:47:36;;;;;;;1999.90;999.90;;;;;;;17.46;70.45;101205.28;10389177;28;20448;-64
2023/11/15 09:52:39;;;;;;;1999.90;999.90;;;;;;;17.23;69.83;101215.91;10377670;28;20103;-64
2023/11/15 09:57:43;;;;;;;1999.90;999.90;;;;;;;17.62;70.31;101208.41;10382620;28;20394;-63
2023/11/15 10:02:52;;;;;;;1999.90;999.90;;;;;;;17.19;72.49;101213.63;10377154;28;20115;-64
2023/11/15 10:08:12;;;;;;;1999.90;999.90;;;;;;;18.42;69.35;101205.47;10378048;28;20141;-64
2023/11/15 10:13:18;;;;;;;1999.90;999.90;;;;;;;17.81;71.30;101205.09;10423025;28;20045;-64
2023/11/15 10:18:33;;;;;;;1999.90;999.90;;;;;;;18.88;68.33;101206.91;10412591;28;20115;-64
2023/11/15 10:23:37;;;;;;;1999.90;999.90;;;;;;;17.45;71.93;101208.94;10412728;28;20053;-64
2023/11/15 10:28:43;;;;;;;1999.90;999.90;;;;;;;16.52;73.87;101220.50;10413241;28;20512;-64
2023/11/15 10:33:51;;;;;;;1999.90;999.90;;;;;;;17.82;70.50;101214.72;10413959;28;20049;-64
2023/11/15 10:39:01;;;;;;;1999.90;999.90;;;;;;;17.86;69.88;101210.03;10415029;28;20061;-64
2023/11/15 10:44:07;;;;;;;1999.90;999.90;;;;;;;18.28;68.01;101211.94;10414842;28;20053;-64
2023/11/15 10:49:11;;;;;;;1999.90;999.90;;;;;;;18.73;67.30;101214.31;10414587;28;20100;-64
2023/11/15 10:54:14;;;;;;;1999.90;999.90;;;;;;;18.55;67.46;101217.56;10415706;28;20077;-64
2023/11/15 10:59:17;;;;;;;1999.90;999.90;;;;;;;18.46;67.03;101213.03;10414274;28;20060;-64
2023/11/15 11:04:20;;;;;;;1999.90;999.90;;;;;;;18.58;66.04;101213.81;10415488;28;20045;-64
2023/11/15 11:09:43;;;;;;;1999.90;999.90;;;;;;;18.66;67.60;101215.78;10414177;28;20136;-64
2023/11/15 11:14:46;;;;;;;1999.90;999.90;;;;;;;18.75;64.70;101210.56;10413846;28;20484;-64
2023/11/15 11:19:51;;;;;;;1999.90;999.90;;;;;;;17.89;67.82;101219.56;10414938;28;20140;-64
2023/11/15 11:25:06;;;;;;;1999.90;999.90;;;;;;;18.87;64.32;101221.97;10414884;28;20046;-64
2023/11/15 11:30:12;;;;;;;1999.90;999.90;;;;;;;18.25;64.79;101218.31;10414793;28;20049;-64
2023/11/15 11:35:30;;;;;;;1999.90;999.90;;;;;;;18.81;64.67;101222.47;10414546;28;20485;-64
2023/11/15 11:40:38;;;;;;;1999.90;999.90;;;;;;;19.16;63.10;101226.56;10413439;28;20061;-64
2023/11/15 11:45:43;;;;;;;1999.90;999.90;;;;;;;17.46;66.65;101219.38;10419807;28;20041;-64
2023/11/15 11:51:07;;;;;;;1999.90;999.90;;;;;;;18.51;64.99;101226.75;10421476;28;20049;-64
2023/11/15 11:56:10;;;;;;;1999.90;999.90;;;;;;;17.38;68.97;101231.53;10422316;28;20056;-63
2023/11/15 12:01:12;;;;;;;1999.90;999.90;;;;;;;18.43;65.79;101220.41;10421871;28;20485;-63
2023/11/15 12:06:17;;;;;;;1999.90;999.90;;;;;;;17.92;69.77;101221.94;10422026;28;20046;-64
2023/11/15 12:11:23;;;;;;;1999.90;999.90;;;;;;;19.35;65.30;101217.84;10420496;28;20054;-64
2023/11/15 12:16:27;;;;;;;1999.90;999.90;;;;;;;19.33;65.61;101213.63;10421383;28;20128;-64
2023/11/15 12:21:37;;;;;;;1999.90;999.90;;;;;;;19.51;65.68;101214.66;10421451;28;20492;-67
2023/11/15 12:26:45;;;;;;;1999.90;999.90;;;;;;;18.24;67.67;101210.50;10420022;28;20050;-67
2023/11/15 12:31:53;;;;;;;1999.90;999.90;;;;;;;18.22;67.91;101212.44;10421090;28;20053;-67
2023/11/15 12:36:55;;;;;;;1999.90;999.90;;;;;;;18.46;65.61;101225.44;10419286;28;20088;-67
2023/11/15 12:42:01;;;;;;;1999.90;999.90;;;;;;;17.18;68.83;101254.25;10419549;28;20137;-67
2023/11/15 12:47:04;;;;;;;1999.90;999.90;;;;;;;18.54;66.71;101233.59;10420391;28;20053;-67
2023/11/15 12:52:07;;;;;;;1999.90;999.90;;;;;;;18.60;66.16;101229.59;10420443;28;20401;-67
2023/11/15 12:57:14;;;;;;;1999.90;999.90;;;;;;;17.89;67.28;101240.75;10401244;28;20099;-67
2023/11/15 13:02:30;;;;;;;1999.90;999.90;;;;;;;18.97;66.44;101237.09;10418622;28;20128;-67
2023/11/15 13:07:33;;;;;;;1999.90;999.90;;;;;;;18.10;67.26;101249.56;10419418;28;20120;-67
2023/11/15 13:12:35;;;;;;;1999.90;999.90;;;;;;;17.84;68.71;101254.34;10419074;28;20049;-66
2023/11/15 13:17:37;;;;;;;1999.90;999.90;;;;;;;17.79;68.79;101257.34;10419177;28;20056;-67
2023/11/15 13:22:40;;;;;;;1999.90;999.90;;;;;;;17.21;67.13;101254.03;10418716;28;20100;-66
2023/11/15 13:27:46;;;;;;;1999.90;999.90;;;;;;;17.20;68.25;101249.72;10418683;28;20121;-67
2023/11/15 13:32:49;;;;;;;1999.90;999.90;;;;;;;17.27;66.43;101264.97;10418519;28;20079;-67
2023/11/15 13:37:55;;;;;;;1999.90;999.90;;;;;;;17.76;65.99;101252.28;10418465;28;20481;-67
2023/11/15 13:42:58;;;;;;;1999.90;999.90;;;;;;;17.42;66.74;101247.06;10418288;28;20049;-67
2023/11/15 13:48:00;;;;;;;1999.90;999.90;;;;;;;17.14;68.77;101250.19;10417633;28;20465;-67
2023/11/15 13:53:03;;;;;;;1999.90;999.90;;;;;;;17.63;64.68;101252.47;10417937;28;20050;-67
2023/11/15 13:58:06;;;;;;;1999.90;999.90;;;;;;;17.43;67.22;101261.97;10416169;28;20052;-67
2023/11/15 14:03:13;;;;;;;1999.90;999.90;;;;;;;17.58;65.51;101259.91;10417351;28;20132;-69
2023/11/15 14:08:18;;;;;;;1999.90;999.90;;;;;;;18.24;63.76;101252.91;10415377;28;20076;-67
2023/11/15 14:13:23;;;;;;;1999.90;999.90;;;;;;;17.88;64.31;101253.13;10400044;28;20049;-67
2023/11/15 14:18:27;;;;;;;1999.90;999.90;;;;;;;18.35;63.34;101252.84;10416785;28;20092;-69
2023/11/15 14:23:29;;;;;;;1999.90;999.90;;;;;;;17.40;66.15;101258.72;10416618;28;20488;-69
2023/11/15 14:28:34;;;;;;;1999.90;999.90;;;;;;;16.95;65.48;101270.13;10415272;28;20496;-69
2023/11/15 14:33:38;;;;;;;1999.90;999.90;;;;;;;16.68;67.52;101273.06;10416201;28;20053;-69
2023/11/15 14:38:42;;;;;;;1999.90;999.90;;;;;;;16.71;65.86;101278.13;10416634;28;20077;-67
2023/11/15 14:43:46;;;;;;;1999.90;999.90;;;;;;;16.69;67.43;101286.16;10415227;28;20053;-67
2023/11/15 14:48:49;;;;;;;1999.90;999.90;;;;;;;16.97;67.60;101288.53;10415769;28;20052;-67
2023/11/15 14:53:55;;;;;;;1999.90;999.90;;;;;;;17.68;64.85;101294.44;10415634;28;20045;-67
2023/11/15 14:58:57;;;;;;;1999.90;999.90;;;;;;;17.35;63.42;101304.09;10414970;28;20041;-67
2023/11/15 15:04:04;;;;;;;1999.90;999.90;;;;;;;17.41;65.93;101308.88;10415505;28;20045;-67
2023/11/15 15:09:08;;;;;;;1999.90;999.90;;;;;;;17.34;65.52;101317.44;10415200;28;20562;-67
2023/11/15 15:14:12;;;;;;;1999.90;999.90;;;;;;;17.76;63.22;101315.03;10415302;28;20076;-67
2023/11/15 15:19:14;;;;;;;1999.90;999.90;;;;;;;17.76;63.63;101322.97;10418597;28;20107;-67
2023/11/15 15:24:17;;;;;;;1999.90;999.90;;;;;;;17.20;65.17;101318.50;10423523;28;20045;-67
2023/11/15 15:29:22;;;;;;;1999.90;999.90;;;;;;;17.93;62.68;101329.59;10423283;28;20060;-68
2023/11/15 15:34:29;;;;;;;1999.90;999.90;;;;;;;16.07;67.52;101339.19;10423005;28;20053;-66
2023/11/15 15:39:33;;;;;;;1999.90;999.90;;;;;;;15.77;69.39;101351.84;10422620;28;20079;-67
2023/11/15 15:44:35;;;;;;;1999.90;999.90;;;;;;;16.12;69.75;101344.97;10422796;28;20042;-66
2023/11/15 15:49:45;;;;;;;1999.90;999.90;;;;;;;15.61;68.65;101359.09;10422530;28;20089;-68
2023/11/15 15:54:47;;;;;;;1999.90;999.90;;;;;;;16.06;68.06;101358.66;10421502;28;20073;-66
2023/11/15 15:59:50;;;;;;;1999.90;999.90;;;;;;;16.42;65.89;101356.91;10422116;28;20049;-67
2023/11/15 16:04:52;;;;;;;1999.90;999.90;;;;;;;16.02;65.93;101354.53;10404564;28;20484;-66
2023/11/15 16:09:57;;;;;;;1999.90;999.90;;;;;;;16.13;66.54;101351.97;10421774;28;20434;-67
2023/11/15 16:14:59;;;;;;;1999.90;999.90;;;;;;;16.53;64.23;101355.19;10421658;28;20041;-67
2023/11/15 16:20:03;;;;;;;1999.90;999.90;;;;;;;16.40;67.34;101351.75;10421377;28;20598;-66
2023/11/15 16:25:06;;;;;;;1999.90;999.90;;;;;;;16.59;65.62;101364.44;10420260;28;20045;-67
2023/11/15 16:30:13;;;;;;;1999.90;999.90;;;;;;;16.70;64.90;101369.78;10420312;28;20493;-67
2023/11/15 16:35:16;;;;;;;1999.90;999.90;;;;;;;15.63;67.14;101382.75;10420812;28;20136;-66
2023/11/15 16:40:18;;;;;;;1999.90;999.90;;;;;;;16.23;66.64;101381.22;10420994;28;20061;-66
2023/11/15 16:45:24;;;;;;;1999.90;999.90;;;;;;;16.49;65.75;101371.38;10419359;28;20055;-67
2023/11/15 16:50:26;;;;;;;1999.90;999.90;;;;;;;16.12;67.52;101372.25;10420493;28;20049;-67
2023/11/15 16:55:29;;;;;;;1999.90;999.90;;;;;;;16.13;67.35;101373.09;10419819;28;20057;-66
2023/11/15 17:00:32;;;;;;;1999.90;999.90;;;;;;;16.59;65.99;101376.81;10420121;28;20046;-66
2023/11/15 17:05:35;;;;;;;1999.90;999.90;;;;;;;14.85;69.32;101397.66;10419672;28;20046;-66
2023/11/15 17:10:38;;;;;;;1999.90;999.90;;;;;;;15.58;66.22;101391.84;10417705;28;20132;-67
2023/11/15 17:15:40;;;;;;;1999.90;999.90;;;;;;;15.20;68.01;101390.03;10419218;28;20084;-66
2023/11/15 17:20:43;;;;;;;1999.90;999.90;;;;;;;16.31;65.31;101398.19;10401553;28;20060;-67
2023/11/15 17:25:51;;;;;;;1999.90;999.90;;;;;;;15.91;66.59;101389.63;10418946;28;20073;-66
2023/11/15 17:30:53;;;;;;;1999.90;999.90;;;;;;;15.70;65.66;101399.84;10419243;28;20050;-67
2023/11/15 17:35:56;;;;;;;1999.90;999.90;;;;;;;15.53;67.94;101401.00;10418190;28;20378;-66
2023/11/15 17:40:59;;;;;;;1999.90;999.90;;;;;;;16.28;64.88;101387.00;10417340;28;20057;-66
2023/11/15 17:46:02;;;;;;;1999.90;999.90;;;;;;;15.49;66.89;101389.81;10417963;28;20052;-67
2023/11/15 17:51:05;;;;;;;1999.90;999.90;;;;;;;15.89;66.80;101388.91;10400279;28;20049;-66
2023/11/15 17:56:08;;;;;;;1999.90;999.90;;;;;;;15.50;67.37;101395.94;10416486;28;20052;-66
2023/11/15 18:01:14;;;;;;;1999.90;999.90;;;;;;;16.02;65.58;101407.34;10416629;28;20128;-66
2023/11/15 18:06:22;;;;;;;1999.90;999.90;;;;;;;15.46;69.14;101397.13;10417367;28;20046;-66
2023/11/15 18:11:24;;;;;;;1999.90;999.90;;;;;;;15.90;66.32;101401.13;10417321;28;20059;-66
2023/11/15 18:16:27;;;;;;;1999.90;999.90;;;;;;;15.38;65.57;101392.34;10416899;28;20051;-66
2023/11/15 18:21:32;;;;;;;1999.90;999.90;;;;;;;15.52;65.32;101396.72;10399719;28;20585;-66
2023/11/15 18:26:36;;;;;;;1999.90;999.90;;;;;;;15.50;65.96;101407.38;10399255;28;20056;-66
2023/11/15 18:31:39;;;;;;;1999.90;999.90;;;;;;;15.42;65.68;101410.50;10416222;28;20471;-66
2023/11/15 18:36:42;;;;;;;1999.90;999.90;;;;;;;16.45;64.87;101399.81;10415922;28;20255;-66
2023/11/15 18:41:46;;;;;;;1999.90;999.90;;;;;;;15.02;68.67;101392.09;10416456;28;20091;-67
2023/11/15 18:46:52;;;;;;;1999.90;999.90;;;;;;;16.38;64.25;101395.09;10414887;28;20149;-67
2023/11/15 18:51:58;;;;;;;1999.90;999.90;;;;;;;15.87;64.69;101394.28;10421903;23;20045;-67
2023/11/15 18:57:01;;;;;;;1999.90;999.90;;;;;;;15.66;65.55;101380.75;10416237;28;20133;-67
2023/11/15 19:02:04;;;;;;;1999.90;999.90;;;;;;;15.73;66.77;101376.72;10414453;28;20049;-66
2023/11/15 19:07:07;;;;;;;1999.90;999.90;;;;;;;15.71;66.76;101375.97;10414146;28;20467;-67
2023/11/15 19:12:09;;;;;;;1999.90;999.90;;;;;;;15.28;68.60;101392.16;10415120;28;20481;-67
2023/11/15 19:17:12;;;;;;;1999.90;999.90;;;;;;;15.50;65.77;101388.88;10415582;28;20056;-66
2023/11/15 19:22:16;;;;;;;1999.90;999.90;;;;;;;15.04;67.92;101378.81;10415201;28;20056;-67
2023/11/15 19:27:19;;;;;;;1999.90;999.90;;;;;;;15.37;67.02;101393.31;10414869;28;20556;-67
2023/11/15 19:32:21;;;;;;;1999.90;999.90;;;;;;;15.19;68.66;101383.03;10397260;28;20060;-67
2023/11/15 19:37:26;;;;;;;1999.90;999.90;;;;;;;15.48;67.00;101390.75;10414640;28;20396;-67
2023/11/15 19:42:30;;;;;;;1999.90;999.90;;;;;;;14.84;69.06;101406.50;10414632;28;20053;-67
2023/11/15 19:47:33;;;;;;;1999.90;999.90;;;;;;;16.30;65.20;101403.59;10414516;28;20453;-66
2023/11/15 19:52:36;;;;;;;1999.90;999.90;;;;;;;15.86;66.16;101397.88;10412963;28;20412;-67
2023/11/15 19:57:39;;;;;;;1999.90;999.90;;;;;;;15.53;67.32;101401.88;10414501;28;20053;-66
2023/11/15 20:02:41;;;;;;;1999.90;999.90;;;;;;;15.25;68.04;101405.53;10414328;28;20050;-66
2023/11/15 20:07:48;;;;;;;1999.90;999.90;;;;;;;15.57;68.19;101399.88;10420021;28;20061;-66
2023/11/15 20:12:51;;;;;;;1999.90;999.90;;;;;;;15.70;68.55;101402.47;10421693;28;20408;-66
2023/11/15 20:17:53;;;;;;;1999.90;999.90;;;;;;;15.41;66.83;101400.91;10420316;28;20045;-66
2023/11/15 20:22:56;;;;;;;1999.90;999.90;;;;;;;15.54;67.62;101408.81;10421609;28;20057;-65
2023/11/15 20:28:00;;;;;;;1999.90;999.90;;;;;;;15.18;68.17;101397.19;10421204;28;20080;-65
2023/11/15 20:33:02;;;;;;;1999.90;999.90;;;;;;;14.21;70.02;101407.91;10420869;28;20049;-66
2023/11/15 20:38:06;;;;;;;1999.90;999.90;;;;;;;14.90;69.93;101402.63;10419721;28;20041;-65
2023/11/15 20:43:09;;;;;;;1999.90;999.90;;;;;;;14.73;69.66;101404.56;10420547;28;20132;-65
2023/11/15 20:48:18;;;;;;;1999.90;999.90;;;;;;;15.51;68.43;101392.38;10420578;28;20080;-65
2023/11/15 20:53:21;;;;;;;1999.90;999.90;;;;;;;15.05;69.53;101405.09;10402815;28;20136;-65
2023/11/15 20:58:25;;;;;;;1999.90;999.90;;;;;;;15.57;66.26;101392.78;10419897;28;20045;-65
2023/11/15 21:03:28;;;;;;;1999.90;999.90;;;;;;;15.33;67.65;101394.47;10402408;28;20485;-65
2023/11/15 21:08:32;;;;;;;1999.90;999.90;;;;;;;15.55;67.99;101391.19;10419575;28;20447;-65
2023/11/15 21:13:34;;;;;;;1999.90;999.90;;;;;;;15.53;67.31;101391.31;10418851;28;20045;-65
2023/11/15 21:18:37;;;;;;;1999.90;999.90;;;;;;;15.45;67.79;101391.00;10419389;28;20053;-65
2023/11/15 21:23:41;;;;;;;1999.90;999.90;;;;;;;15.57;67.45;101392.78;10419716;28;20062;-65
2023/11/15 21:28:46;;;;;;;1999.90;999.90;;;;;;;15.14;69.01;101400.13;10418791;28;20045;-65
2023/11/15 21:33:48;;;;;;;1999.90;999.90;;;;;;;15.76;68.58;101397.66;10419005;28;20050;-65
2023/11/15 21:38:50;;;;;;;1999.90;999.90;;;;;;;15.13;68.72;101396.66;10417094;28;20497;-66
2023/11/15 21:43:53;;;;;;;1999.90;999.90;;;;;;;15.72;67.10;101398.81;10418220;28;20409;-65
2023/11/15 21:48:56;;;;;;;1999.90;999.90;;;;;;;15.22;70.70;101382.00;10418135;28;20064;-65
2023/11/15 21:54:00;;;;;;;1999.90;999.90;;;;;;;15.23;68.68;101371.34;10417604;28;20548;-66
2023/11/15 21:59:03;;;;;;;1999.90;999.90;;;;;;;15.60;68.54;101370.59;10417534;28;20124;-65